createdAt,value
2018-12-23T00:02:02.747Z,11.27
2018-12-23T00:04:31.067Z,12.40
2018-12-23T00:06:59.407Z,11.73
2018-12-23T00:09:28.101Z,12.30
2018-12-23T00:11:56.315Z,11.57
2018-12-23T00:14:24.709Z,12.30
2018-12-23T00:16:52.895Z,11.63
2018-12-23T00:19:21.203Z,11.10
2018-12-23T00:21:49.467Z,11.97
2018-12-23T00:24:17.736Z,11.90
2018-12-23T00:26:46.047Z,10.60
2018-12-23T00:29:14.267Z,12.07
2018-12-23T00:31:42.533Z,11.13
2018-12-23T00:34:10.727Z,11.17
2018-12-23T00:36:38.996Z,12.47
2018-12-23T00:39:07.739Z,11.90
2018-12-23T00:41:36.732Z,11.63
2018-12-23T00:44:05.097Z,11.17
2018-12-23T00:46:33.421Z,11.63
2018-12-23T00:49:01.650Z,12.00
2018-12-23T00:51:29.914Z,10.93
2018-12-23T00:53:58.223Z,11.10
2018-12-23T00:56:26.493Z,11.47
2018-12-23T00:58:54.796Z,12.20
2018-12-23T01:01:23.073Z,11.43
2018-12-23T01:03:51.299Z,12.40
2018-12-23T01:06:19.591Z,11.90
2018-12-23T01:08:47.850Z,12.47
2018-12-23T01:11:16.166Z,11.33
2018-12-23T01:13:44.371Z,11.47
2018-12-23T01:16:12.651Z,11.43
2018-12-23T01:18:40.833Z,11.90
2018-12-23T01:21:09.179Z,11.67
2018-12-23T01:23:37.441Z,12.23
2018-12-23T01:26:05.651Z,12.50
2018-12-23T01:28:33.877Z,12.47
2018-12-23T01:31:02.165Z,11.73
2018-12-23T01:33:30.455Z,12.10
2018-12-23T01:35:58.679Z,12.50
2018-12-23T01:38:26.857Z,13.43
2018-12-23T01:40:55.163Z,13.87
2018-12-23T01:43:23.404Z,14.33
2018-12-23T01:45:51.652Z,15.60
2018-12-23T01:48:19.857Z,15.70
2018-12-23T01:50:48.184Z,16.10
2018-12-23T01:53:16.460Z,14.93
2018-12-23T01:55:44.736Z,14.90
2018-12-23T01:58:12.952Z,15.10
2018-12-23T02:00:41.226Z,15.47
2018-12-23T02:03:09.388Z,16.10
2018-12-23T02:05:45.834Z,16.93
2018-12-23T02:08:07.976Z,16.23
2018-12-23T02:10:36.304Z,16.67
2018-12-23T02:13:04.659Z,15.70
2018-12-23T02:15:32.974Z,15.57
2018-12-23T02:18:01.164Z,14.53
2018-12-23T02:20:29.438Z,15.47
2018-12-23T02:22:57.730Z,14.60
2018-12-23T02:25:26.113Z,15.47
2018-12-23T02:27:54.350Z,15.37
2018-12-23T02:30:22.614Z,14.43
2018-12-23T02:32:50.936Z,16.10
2018-12-23T02:35:19.286Z,15.77
2018-12-23T02:37:47.447Z,15.90
2018-12-23T02:40:15.744Z,16.03
2018-12-23T02:42:44.008Z,14.27
2018-12-23T02:45:12.260Z,15.43
2018-12-23T02:47:40.494Z,15.70
2018-12-23T02:50:08.748Z,15.20
2018-12-23T02:52:36.932Z,14.20
2018-12-23T02:55:05.279Z,14.90
2018-12-23T02:57:33.458Z,14.60
2018-12-23T03:00:01.745Z,14.25
2018-12-23T03:02:30.024Z,14.93
2018-12-23T03:04:58.326Z,15.20
2018-12-23T03:07:26.653Z,15.80
2018-12-23T03:09:54.980Z,16.83
2018-12-23T03:12:23.338Z,16.07
2018-12-23T03:14:51.620Z,17.20
2018-12-23T03:17:19.902Z,16.00
2018-12-23T03:19:48.244Z,14.73
2018-12-23T03:22:16.479Z,16.27
2018-12-23T03:24:44.814Z,17.47
2018-12-23T03:27:13.134Z,15.60
2018-12-23T03:29:41.478Z,17.07
2018-12-23T03:32:09.794Z,16.80
2018-12-23T03:34:38.165Z,16.50
2018-12-23T03:37:06.334Z,17.20
2018-12-23T03:39:34.551Z,18.03
2018-12-23T03:42:02.784Z,15.37
2018-12-23T03:44:31.065Z,18.27
2018-12-23T03:46:59.381Z,17.57
2018-12-23T03:49:27.842Z,15.53
2018-12-23T03:51:56.082Z,15.77
2018-12-23T03:54:24.378Z,14.87
2018-12-23T03:56:52.577Z,15.80
2018-12-23T03:59:20.888Z,13.63
2018-12-23T04:01:49.378Z,14.07
2018-12-23T04:04:17.615Z,14.57
2018-12-23T04:06:46.002Z,13.57
2018-12-23T04:09:14.187Z,13.83
2018-12-23T04:11:42.436Z,13.87
2018-12-23T04:14:10.694Z,12.67
2018-12-23T04:16:38.933Z,12.87
2018-12-23T04:19:07.434Z,12.90
2018-12-23T04:21:35.719Z,13.20
2018-12-23T04:24:04.063Z,13.70
2018-12-23T04:26:32.371Z,14.30
2018-12-23T04:29:00.558Z,12.77
2018-12-23T04:31:28.750Z,12.00
2018-12-23T04:33:57.026Z,12.00
2018-12-23T04:36:33.830Z,12.30
2018-12-23T04:38:55.427Z,12.00
2018-12-23T04:41:23.696Z,12.10
2018-12-23T04:43:52.060Z,12.77
2018-12-23T04:46:20.257Z,12.00
2018-12-23T04:48:48.547Z,10.67
2018-12-23T04:51:16.835Z,12.93
2018-12-23T04:53:45.089Z,13.47
2018-12-23T04:56:13.326Z,12.03
2018-12-23T04:58:41.598Z,12.03
2018-12-23T05:01:09.809Z,13.10
2018-12-23T05:03:42.643Z,11.87
2018-12-23T05:06:08.263Z,12.47
2018-12-23T05:08:36.565Z,12.17
2018-12-23T05:11:04.777Z,12.90
2018-12-23T05:13:34.359Z,11.80
2018-12-23T05:16:02.914Z,11.33
2018-12-23T05:18:31.150Z,12.53
2018-12-23T05:20:59.413Z,11.90
2018-12-23T05:23:27.591Z,12.17
2018-12-23T05:25:55.807Z,12.30
2018-12-23T05:28:24.139Z,12.50
2018-12-23T05:30:52.388Z,10.97
2018-12-23T05:33:20.663Z,12.07
2018-12-23T05:35:48.981Z,11.97
2018-12-23T05:38:17.220Z,11.40
2018-12-23T05:40:45.665Z,12.70
2018-12-23T05:43:13.973Z,11.50
2018-12-23T05:45:42.239Z,12.20
2018-12-23T05:48:10.524Z,11.93
2018-12-23T05:50:38.763Z,11.20
2018-12-23T05:53:06.937Z,11.43
2018-12-23T05:55:34.334Z,10.90
2018-12-23T05:58:02.670Z,12.20
2018-12-23T06:00:30.839Z,12.67
2018-12-23T06:02:59.033Z,11.47
2018-12-23T06:05:27.239Z,11.37
2018-12-23T06:07:55.451Z,11.53
2018-12-23T06:10:23.707Z,11.47
2018-12-23T06:12:51.925Z,11.50
2018-12-23T06:15:20.195Z,11.93
2018-12-23T06:17:48.439Z,12.37
2018-12-23T06:20:16.597Z,12.63
2018-12-23T06:22:44.827Z,12.40
2018-12-23T06:25:12.996Z,12.30
2018-12-23T06:27:41.303Z,11.60
2018-12-23T06:30:09.563Z,13.00
2018-12-23T06:32:37.835Z,11.57
2018-12-23T06:35:06.317Z,11.50
2018-12-23T06:37:34.664Z,12.07
2018-12-23T06:40:03.211Z,12.00
2018-12-23T06:42:31.482Z,11.30
2018-12-23T06:44:59.837Z,12.23
2018-12-23T06:47:28.163Z,11.67
2018-12-23T06:49:56.518Z,12.53
2018-12-23T06:52:24.777Z,12.43
2018-12-23T06:54:53.041Z,12.73
2018-12-23T06:57:21.281Z,13.00
2018-12-23T06:59:50.091Z,13.13
2018-12-23T07:02:18.555Z,13.83
2018-12-23T07:04:46.818Z,12.90
2018-12-23T07:07:18.766Z,12.90
2018-12-23T07:09:45.219Z,12.63
2018-12-23T07:12:13.401Z,13.37
2018-12-23T07:14:41.652Z,14.00
2018-12-23T07:17:09.849Z,13.13
2018-12-23T07:19:38.015Z,12.93
2018-12-23T07:22:06.171Z,12.77
2018-12-23T07:24:34.416Z,12.80
2018-12-23T07:27:02.785Z,13.10
2018-12-23T07:29:31.087Z,11.70
2018-12-23T07:31:59.363Z,12.77
2018-12-23T07:34:27.602Z,10.90
2018-12-23T07:36:56.059Z,12.90
2018-12-23T07:39:24.230Z,11.37
2018-12-23T07:41:52.505Z,11.50
2018-12-23T07:44:20.788Z,11.43
2018-12-23T07:46:49.106Z,11.33
2018-12-23T07:49:17.313Z,11.13
2018-12-23T07:51:45.533Z,11.10
2018-12-23T07:54:13.912Z,11.27
2018-12-23T07:56:42.084Z,10.50
2018-12-23T07:59:10.365Z,10.63
2018-12-23T08:01:38.683Z,9.47
2018-12-23T08:04:06.932Z,9.57
2018-12-23T08:06:35.167Z,8.77
2018-12-23T08:09:05.031Z,9.93
2018-12-23T08:11:33.253Z,9.90
2018-12-23T08:14:02.141Z,9.13
2018-12-23T08:16:30.410Z,9.37
2018-12-23T08:18:58.592Z,9.07
2018-12-23T08:21:26.856Z,9.07
2018-12-23T08:23:55.014Z,8.97
2018-12-23T08:26:23.437Z,8.60
2018-12-23T08:28:51.730Z,8.87
2018-12-23T08:31:20.050Z,9.00
2018-12-23T08:33:48.305Z,8.20
2018-12-23T08:36:16.526Z,8.77
2018-12-23T08:38:44.730Z,8.23
2018-12-23T08:41:14.628Z,8.17
2018-12-23T08:43:42.819Z,8.17
2018-12-23T08:46:11.126Z,7.53
2018-12-23T08:48:39.336Z,8.07
2018-12-23T08:51:07.605Z,7.23
2018-12-23T08:53:35.884Z,7.27
2018-12-23T08:56:04.432Z,8.03
2018-12-23T08:58:32.744Z,7.53
2018-12-23T09:01:01.084Z,7.60
2018-12-23T09:03:29.392Z,6.77
2018-12-23T09:05:57.598Z,7.10
2018-12-23T09:08:25.810Z,6.77
2018-12-23T09:10:54.064Z,7.83
2018-12-23T09:13:22.331Z,7.07
2018-12-23T09:15:50.552Z,7.33
2018-12-23T09:18:19.435Z,8.03
2018-12-23T09:20:48.235Z,6.20
2018-12-23T09:23:16.459Z,6.30
2018-12-23T09:25:44.788Z,7.13
2018-12-23T09:28:12.954Z,6.87
2018-12-23T09:30:41.155Z,7.10
2018-12-23T09:33:09.350Z,6.33
2018-12-23T09:35:37.575Z,6.07
2018-12-23T09:38:05.765Z,5.90
2018-12-23T09:40:34.060Z,5.90
2018-12-23T09:43:04.112Z,6.30
2018-12-23T09:45:32.329Z,5.93
2018-12-23T09:48:00.636Z,5.10
2018-12-23T09:50:28.968Z,5.40
2018-12-23T09:52:57.312Z,5.40
2018-12-23T09:55:25.591Z,5.47
2018-12-23T09:57:53.808Z,5.23
2018-12-23T10:00:22.160Z,5.00
2018-12-23T10:02:50.388Z,5.10
2018-12-23T10:05:18.612Z,5.40
2018-12-23T10:07:47.904Z,5.40
2018-12-23T10:10:16.086Z,5.60
2018-12-23T10:12:44.428Z,5.90
2018-12-23T10:15:12.656Z,6.43
2018-12-23T10:17:41.008Z,6.20
2018-12-23T10:20:09.350Z,6.20
2018-12-23T10:22:37.624Z,5.17
2018-12-23T10:25:07.172Z,5.40
2018-12-23T10:30:30.096Z,5.83
2018-12-23T10:32:58.869Z,5.70
2018-12-23T10:35:27.077Z,5.50
2018-12-23T10:37:55.299Z,5.87
2018-12-23T10:40:23.601Z,6.17
2018-12-23T10:42:51.975Z,6.00
2018-12-23T10:45:20.209Z,5.30
2018-12-23T10:47:48.678Z,5.50
2018-12-23T10:50:16.953Z,4.80
2018-12-23T10:52:45.571Z,5.00
2018-12-23T10:55:13.857Z,4.37
2018-12-23T10:57:42.356Z,4.60
2018-12-23T11:00:13.905Z,4.23
2018-12-23T11:02:42.493Z,4.50
2018-12-23T11:05:13.091Z,3.93
2018-12-23T11:07:42.623Z,4.20
2018-12-23T11:10:11.887Z,4.00
2018-12-23T11:12:40.209Z,4.03
2018-12-23T11:15:08.613Z,4.20
2018-12-23T11:17:36.848Z,3.97
2018-12-23T11:20:06.356Z,4.10
2018-12-23T11:22:34.727Z,4.60
2018-12-23T11:25:03.127Z,4.90
2018-12-23T11:27:31.331Z,5.23
2018-12-23T11:29:59.617Z,5.30
2018-12-23T11:32:27.988Z,5.20
2018-12-23T11:34:56.221Z,6.03
2018-12-23T11:37:24.381Z,6.03
2018-12-23T11:39:52.540Z,7.53
2018-12-23T11:42:20.897Z,6.33
2018-12-23T11:44:49.168Z,6.03
2018-12-23T11:47:17.389Z,6.47
2018-12-23T11:49:45.626Z,6.33
2018-12-23T11:52:13.880Z,6.47
2018-12-23T11:54:42.062Z,7.07
2018-12-23T11:57:10.329Z,5.83
2018-12-23T11:59:38.671Z,6.20
2018-12-23T12:02:15.082Z,6.20
2018-12-23T12:04:37.277Z,6.50
2018-12-23T12:07:05.494Z,6.07
2018-12-23T12:09:33.737Z,6.07
2018-12-23T12:12:01.971Z,6.50
2018-12-23T12:14:30.229Z,5.37
2018-12-23T12:16:58.468Z,6.40
2018-12-23T12:19:26.693Z,6.63
2018-12-23T12:21:54.894Z,5.40
2018-12-23T12:24:23.157Z,6.03
2018-12-23T12:26:51.337Z,6.03
2018-12-23T12:29:19.647Z,6.97
2018-12-23T12:31:48.003Z,6.10
2018-12-23T12:34:16.272Z,6.00
2018-12-23T12:36:44.679Z,6.80
2018-12-23T12:39:12.928Z,6.37
2018-12-23T12:41:41.214Z,7.67
2018-12-23T12:44:09.502Z,6.30
2018-12-23T12:46:37.678Z,6.50
2018-12-23T12:49:05.999Z,7.03
2018-12-23T12:51:34.354Z,6.13
2018-12-23T12:54:02.566Z,6.00
2018-12-23T12:56:30.860Z,5.30
2018-12-23T12:58:59.084Z,5.80
2018-12-23T13:01:27.342Z,5.83
2018-12-23T13:03:55.537Z,5.60
2018-12-23T13:06:23.791Z,6.13
2018-12-23T13:09:00.301Z,5.13
2018-12-23T13:11:22.356Z,5.73
2018-12-23T13:16:26.304Z,6.47
2018-12-23T13:18:54.585Z,5.83
2018-12-23T13:21:22.796Z,7.17
2018-12-23T13:23:50.967Z,6.27
2018-12-23T13:26:19.179Z,5.80
2018-12-23T13:28:47.390Z,6.10
2018-12-23T13:31:15.619Z,6.60
2018-12-23T13:33:43.926Z,7.37
2018-12-23T13:36:12.264Z,8.37
2018-12-23T13:38:40.529Z,7.53
2018-12-23T13:42:39.162Z,8.33
2018-12-23T13:47:22.069Z,9.07
2018-12-23T13:50:30.754Z,8.63
2018-12-23T13:53:24.686Z,10.50
2018-12-23T13:56:07.100Z,9.20
2018-12-23T13:58:54.303Z,9.00
2018-12-23T14:01:33.310Z,10.60
2018-12-23T14:04:12.937Z,10.03
2018-12-23T14:07:06.315Z,10.40
2018-12-23T14:10:44.314Z,10.00
2018-12-23T14:13:12.511Z,11.57
2018-12-23T14:15:40.719Z,11.63
2018-12-23T14:18:09.010Z,10.13
2018-12-23T14:20:37.340Z,11.20
2018-12-23T14:23:05.496Z,11.47
2018-12-23T14:25:33.798Z,11.73
2018-12-23T14:28:02.064Z,10.53
2018-12-23T14:30:30.225Z,12.00
2018-12-23T14:32:58.582Z,11.73
2018-12-23T14:35:26.844Z,10.23
2018-12-23T14:37:55.214Z,7.40
2018-12-23T14:40:23.468Z,8.50
2018-12-23T14:43:06.431Z,6.67
2018-12-23T14:45:34.663Z,5.60
2018-12-23T14:48:02.993Z,4.03
2018-12-23T14:50:31.163Z,3.50
2018-12-23T14:52:59.463Z,2.63
2018-12-23T14:55:27.753Z,2.70
2018-12-23T14:57:56.004Z,3.03
2018-12-23T15:00:24.399Z,2.83
2018-12-23T15:02:52.624Z,3.43
2018-12-23T15:05:54.479Z,3.63
2018-12-23T15:08:23.852Z,3.77
2018-12-23T15:11:12.247Z,4.47
2018-12-23T15:14:00.638Z,4.47
2018-12-23T15:16:49.029Z,7.20
2018-12-23T15:19:37.409Z,7.33
2018-12-23T15:22:25.807Z,9.48
2018-12-23T15:25:14.183Z,10.43
2018-12-23T15:28:02.546Z,11.10
2018-12-23T15:30:31.854Z,12.30
2018-12-23T15:33:20.292Z,12.57
2018-12-23T15:36:08.687Z,13.80
2018-12-23T15:38:57.239Z,15.53
2018-12-23T15:41:45.684Z,14.10
2018-12-23T15:44:34.065Z,13.33
2018-12-23T15:47:22.615Z,12.30
2018-12-23T15:50:11.122Z,11.53
2018-12-23T15:52:59.765Z,11.53
2018-12-23T15:55:48.266Z,11.07
2018-12-23T15:58:36.694Z,11.27
2018-12-23T16:01:25.162Z,10.40
2018-12-23T16:04:13.570Z,7.72
2018-12-23T16:07:01.967Z,7.37
2018-12-23T16:09:51.283Z,8.53
2018-12-23T16:12:40.411Z,7.20
2018-12-23T16:15:28.860Z,7.57
2018-12-23T16:18:17.408Z,7.27
2018-12-23T16:21:05.840Z,6.73
2018-12-23T16:23:54.203Z,6.87
2018-12-23T16:26:42.735Z,8.23
2018-12-23T16:29:31.162Z,8.37
2018-12-23T16:32:12.080Z,8.30
2018-12-23T16:34:53.094Z,7.57
2018-12-23T16:37:34.416Z,8.20
2018-12-23T16:40:15.788Z,7.80
2018-12-23T16:42:57.004Z,10.13
2018-12-23T16:45:38.012Z,8.90
2018-12-23T16:48:19.285Z,9.58
2018-12-23T16:51:00.045Z,10.40
2018-12-23T16:53:40.900Z,10.10
2018-12-23T16:56:21.888Z,11.60
2018-12-23T16:59:03.071Z,11.30
2018-12-23T17:01:43.852Z,10.47
2018-12-23T17:04:25.006Z,11.03
2018-12-23T17:07:05.844Z,11.17
2018-12-23T17:09:46.916Z,11.60
2018-12-23T17:12:28.226Z,11.50
2018-12-23T17:15:09.020Z,10.73
2018-12-23T17:17:50.444Z,11.90
2018-12-23T17:20:31.342Z,11.50
2018-12-23T17:23:12.328Z,10.63
2018-12-23T17:25:51.818Z,10.90
2018-12-23T17:28:40.192Z,11.60
2018-12-23T17:31:21.424Z,10.40
2018-12-23T17:34:02.132Z,10.00
2018-12-23T17:36:43.008Z,10.50
2018-12-23T17:39:24.459Z,9.93
2018-12-23T17:44:51.877Z,10.50
2018-12-23T17:47:21.296Z,10.20
2018-12-23T17:50:10.520Z,10.08
2018-12-23T17:52:58.909Z,10.20
2018-12-23T17:55:48.118Z,11.27
2018-12-23T17:58:36.637Z,10.30
2018-12-23T18:01:25.067Z,10.70
2018-12-23T18:04:13.598Z,11.10
2018-12-23T18:09:57.066Z,11.68
2018-12-23T18:12:49.245Z,13.17
2018-12-23T18:15:37.817Z,10.08
2018-12-23T18:18:26.617Z,11.68
2018-12-23T18:21:15.127Z,10.50
2018-12-23T18:24:03.537Z,12.55
2018-12-23T18:26:52.269Z,11.27
2018-12-23T18:29:40.845Z,11.00
2018-12-23T18:32:10.227Z,11.93
2018-12-23T18:34:58.935Z,11.27
2018-12-23T18:37:47.517Z,13.43
2018-12-23T18:40:35.945Z,11.40
2018-12-23T18:43:24.389Z,11.63
2018-12-23T18:46:12.744Z,12.00
2018-12-23T18:49:01.249Z,12.40
2018-12-23T18:51:30.685Z,12.33
2018-12-23T18:54:00.168Z,11.03
2018-12-23T18:56:49.996Z,12.03
2018-12-23T18:59:40.758Z,11.77
2018-12-23T19:02:48.322Z,11.93
2018-12-23T19:05:36.792Z,12.45
2018-12-23T19:08:44.289Z,11.17
2018-12-23T19:11:51.785Z,13.60
2018-12-23T19:14:54.911Z,13.90
2018-12-23T19:18:02.420Z,12.00
2018-12-23T19:21:09.938Z,13.33
2018-12-23T19:24:17.646Z,12.77
2018-12-23T19:27:25.126Z,13.50
2018-12-23T19:30:18.954Z,12.80
2018-12-23T19:33:26.481Z,11.80
2018-12-23T19:36:34.045Z,12.87
2018-12-23T19:39:34.108Z,11.87
2018-12-23T19:42:41.668Z,11.35
2018-12-23T19:45:49.188Z,12.30
2018-12-23T19:48:56.746Z,11.90
2018-12-23T19:51:50.815Z,12.90
2018-12-23T19:54:58.302Z,13.70
2018-12-23T19:58:05.825Z,13.63
2018-12-23T20:01:13.322Z,12.33
2018-12-23T20:03:54.076Z,13.37
2018-12-23T20:06:35.489Z,12.33
2018-12-23T20:09:16.976Z,12.03
2018-12-23T20:11:57.940Z,12.98
2018-12-23T20:14:39.089Z,12.83
2018-12-23T20:17:20.102Z,14.57
2018-12-23T20:20:01.594Z,12.97
2018-12-23T20:23:26.952Z,13.08
2018-12-23T20:29:21.918Z,13.80
2018-12-23T20:32:29.600Z,13.37
2018-12-23T20:35:37.190Z,13.25
2018-12-23T20:38:40.567Z,13.17
2018-12-23T20:41:48.103Z,13.40
2018-12-23T20:44:55.657Z,13.77
2018-12-23T20:48:03.275Z,13.23
2018-12-23T20:51:10.919Z,13.70
2018-12-23T20:54:18.411Z,13.53
2018-12-23T20:57:25.951Z,13.73
2018-12-23T21:00:36.578Z,14.10
2018-12-23T21:03:44.106Z,13.93
2018-12-23T21:06:25.724Z,13.27
2018-12-23T21:09:30.650Z,13.73
2018-12-23T21:12:28.310Z,13.90
2018-12-23T21:15:35.774Z,13.57
2018-12-23T21:18:43.367Z,14.05
2018-12-23T21:21:50.898Z,13.47
2018-12-23T21:24:58.408Z,14.50
2018-12-23T21:28:05.931Z,12.80
2018-12-23T21:31:13.402Z,14.00
2018-12-23T21:34:21.029Z,13.20
2018-12-23T21:37:28.544Z,15.10
2018-12-23T21:40:36.079Z,13.72
2018-12-23T21:43:44.408Z,14.37
2018-12-23T21:46:38.574Z,14.53
2018-12-23T21:49:46.084Z,14.83
2018-12-23T21:52:53.220Z,12.30
2018-12-23T21:55:34.138Z,13.13
2018-12-23T22:04:00.542Z,13.90
2018-12-23T22:06:42.946Z,12.83
2018-12-23T22:09:24.354Z,13.80
2018-12-23T22:12:13.725Z,13.30
2018-12-23T22:14:55.486Z,13.83
2018-12-23T22:17:37.146Z,13.62
2018-12-23T22:38:01.755Z,13.43
2018-12-23T22:40:42.720Z,13.93
2018-12-23T22:43:23.664Z,14.97
2018-12-23T22:45:53.055Z,13.90
2018-12-23T22:48:41.561Z,13.80
2018-12-23T22:51:30.067Z,13.70
2018-12-23T22:54:18.526Z,12.30
2018-12-23T22:57:06.887Z,13.30
2018-12-23T22:59:55.389Z,12.47
2018-12-23T23:02:43.953Z,12.20
2018-12-23T23:05:32.337Z,12.37
2018-12-23T23:08:20.830Z,12.70
2018-12-23T23:11:09.222Z,13.33
2018-12-23T23:13:57.607Z,13.70
2018-12-23T23:16:46.137Z,13.47
2018-12-23T23:19:34.543Z,14.23
2018-12-23T23:22:22.920Z,13.60
2018-12-23T23:25:03.907Z,12.50
2018-12-23T23:27:45.101Z,13.22
2018-12-23T23:30:26.011Z,10.93
2018-12-23T23:33:09.073Z,12.33
2018-12-23T23:35:49.965Z,12.07
2018-12-23T23:38:31.665Z,10.13
2018-12-23T23:41:12.651Z,9.13
2018-12-23T23:43:53.567Z,8.00
2018-12-23T23:46:34.834Z,9.30
2018-12-23T23:49:15.989Z,7.28
2018-12-23T23:51:57.293Z,7.80
2018-12-23T23:54:38.447Z,7.00
2018-12-23T23:57:19.660Z,7.57
